Time;durP1;ratioP1;P1;durP2;ratioP2;P2;SDS_P1;SDS_P2;PMS_P1;PMS_P2;Temp;Humidity;BMP_temperature;BMP_pressure;BME280_temperature;BME280_humidity;BME280_pressure;Samples;Min_cycle;Max_cycle;Signal;HPM_P1;HPM_P2
2020/12/24 00:02:47;;;;;;;;;;;8.40;99.90;;;;;;5101297;28;19922;-96
2020/12/24 00:05:13;;;;;;;;;;;8.40;99.90;;;;;;5102191;28;19908;-96
2020/12/24 00:07:57;;;;;;;;;;;8.30;99.90;;;;;;5105644;28;19912;-96
2020/12/24 00:10:34;;;;;;;;;;;8.30;99.90;;;;;;5118475;28;19918;-96
2020/12/24 00:13:11;;;;;;;;;;;8.30;99.90;;;;;;5122663;28;19912;-96
2020/12/24 00:15:41;;;;;;;;;;;8.30;99.90;;;;;;5120634;28;19912;-96
2020/12/24 00:18:27;;;;;;;;;;;8.30;99.90;;;;;;5118713;28;19911;-96
2020/12/24 00:24:30;;;;;;;;;;;8.20;99.90;;;;;;5116328;28;19978;-96
2020/12/24 00:27:00;;;;;;;;;;;8.20;99.90;;;;;;5116290;28;19908;-95
2020/12/24 00:29:33;;;;;;;;;;;8.20;99.90;;;;;;5116610;28;19919;-95
2020/12/24 00:32:18;;;;;;;;;;;8.20;99.90;;;;;;5116103;28;19915;-94
2020/12/24 00:34:46;;;;;;;;;;;8.20;99.90;;;;;;5113413;28;19922;-96
2020/12/24 00:37:18;;;;;;;;;;;8.10;99.90;;;;;;5115111;28;19920;-95
2020/12/24 00:40:07;;;;;;;;;;;8.10;99.90;;;;;;5116266;28;19908;-96
2020/12/24 00:42:56;;;;;;;;;;;8.10;99.90;;;;;;5131429;27;20010;-95
2020/12/24 00:45:31;;;;;;;;;;;8.10;99.90;;;;;;5114103;28;19908;-96
2020/12/24 00:48:20;;;;;;;;;;;8.10;99.90;;;;;;5116088;28;19964;-95
2020/12/24 00:50:53;;;;;;;;;;;8.10;99.90;;;;;;5116690;28;19915;-95
2020/12/24 00:53:41;;;;;;;;;;;8.10;99.90;;;;;;5114757;28;19908;-95
2020/12/24 00:59:26;;;;;;;;;;;;;;;;;;;;;
2020/12/24 01:17:38;;;;;;;;;;;8.40;99.90;;;;;;5120599;28;19908;-95
2020/12/24 01:23:47;;;;;;;;;;;8.30;99.90;;;;;;5033093;28;19917;-96
2020/12/24 01:26:19;;;;;;;;;;;8.30;99.90;;;;;;5016996;28;20421;-96
2020/12/24 01:35:16;;;;;;;;;;;8.20;99.90;;;;;;5092186;28;19928;-96
2020/12/24 01:38:05;;;;;;;;;;;8.20;99.90;;;;;;5073250;28;20018;-96
2020/12/24 01:40:39;;;;;;;;;;;8.20;99.90;;;;;;5056564;28;19909;-96
2020/12/24 01:43:10;;;;;;;;;;;8.20;99.90;;;;;;5054467;28;19924;-96
2020/12/24 01:45:38;;;;;;;;;;;8.10;99.90;;;;;;5056894;28;19909;-95
2020/12/24 01:48:04;;;;;;;;;;;8.10;99.90;;;;;;5054353;28;20373;-95
2020/12/24 01:50:32;;;;;;;;;;;8.10;99.90;;;;;;5056393;28;19920;-94
2020/12/24 01:53:08;;;;;;;;;;;8.10;99.90;;;;;;5058452;28;19908;-95
2020/12/24 01:55:43;;;;;;;;;;;8.10;99.90;;;;;;5060974;28;19909;-95
2020/12/24 01:58:32;;;;;;;;;;;8.00;99.90;;;;;;5076253;28;19913;-95
2020/12/24 02:01:20;;;;;;;;;;;8.00;99.90;;;;;;5095396;28;19919;-95
2020/12/24 02:04:03;;;;;;;;;;;8.00;99.90;;;;;;5097908;28;20410;-95
2020/12/24 02:06:53;;;;;;;;;;;7.90;99.90;;;;;;5097771;28;20444;-95
2020/12/24 02:09:24;;;;;;;;;;;7.90;99.90;;;;;;5103973;28;19914;-95
2020/12/24 02:11:54;;;;;;;;;;;7.90;99.90;;;;;;5119667;28;19908;-95
2020/12/24 02:14:48;;;;;;;;;;;7.90;99.90;;;;;;5111088;28;19933;-94
2020/12/24 02:17:21;;;;;;;;;;;7.80;99.90;;;;;;5117437;28;19908;-93
2020/12/24 02:20:08;;;;;;;;;;;7.80;99.90;;;;;;5118573;28;20383;-95
2020/12/24 02:22:46;;;;;;;;;;;7.80;99.90;;;;;;5118572;28;19915;-95
2020/12/24 02:32:02;;;;;;;;;;;7.80;99.90;;;;;;5119291;28;20463;-93
2020/12/24 02:34:30;;;;;;;;;;;7.80;99.90;;;;;;5119182;28;19907;-95
2020/12/24 02:37:08;;;;;;;;;;;;;;;;;;;;;
2020/12/24 02:39:41;;;;;;;;;;;7.80;99.90;;;;;;5118202;28;19907;-94
2020/12/24 02:42:11;;;;;;;;;;;7.80;99.90;;;;;;5117824;28;19930;-95
2020/12/24 02:47:43;;;;;;;;;;;7.80;99.90;;;;;;5131847;27;20270;-93
2020/12/24 02:50:14;;;;;;;;;;;7.90;99.90;;;;;;5121600;27;19907;-94
2020/12/24 02:53:03;;;;;;;;;;;7.90;99.90;;;;;;5138010;27;19915;-92
2020/12/24 02:55:40;;;;;;;;;;;7.90;99.90;;;;;;5117161;27;19907;-95
2020/12/24 02:58:09;;;;;;;;;;;7.90;99.90;;;;;;5120785;27;19907;-95
2020/12/24 03:01:04;;;;;;;;;;;;;;;;;;;;;
2020/12/24 03:03:31;;;;;;;;;;;8.00;99.90;;;;;;5132132;27;20010;-94
2020/12/24 03:06:04;;;;;;;;;;;8.00;99.90;;;;;;5117578;27;20356;-93
2020/12/24 03:08:37;;;;;;;;;;;8.00;99.90;;;;;;5120847;27;19934;-92
2020/12/24 03:11:08;;;;;;;;;;;8.00;99.90;;;;;;5120715;27;19907;-95
2020/12/24 03:13:34;;;;;;;;;;;8.10;99.90;;;;;;5121315;27;19907;-95
2020/12/24 03:19:32;;;;;;;;;;;8.10;99.90;;;;;;5089260;28;19972;-95
2020/12/24 03:22:15;;;;;;;;;;;8.10;99.90;;;;;;5096084;28;19959;-96
2020/12/24 03:25:11;;;;;;;;;;;8.10;99.90;;;;;;5112600;28;19908;-94
2020/12/24 03:27:51;;;;;;;;;;;8.10;99.90;;;;;;5117689;28;19908;-93
2020/12/24 03:30:29;;;;;;;;;;;8.10;99.90;;;;;;5089232;28;19916;-94
2020/12/24 03:33:02;;;;;;;;;;;8.10;99.90;;;;;;5075504;28;19955;-94
2020/12/24 03:35:44;;;;;;;;;;;8.10;99.90;;;;;;5078114;28;19920;-94
2020/12/24 03:38:36;;;;;;;;;;;8.10;99.90;;;;;;5095270;28;19912;-94
2020/12/24 03:41:25;;;;;;;;;;;8.10;99.90;;;;;;5079000;28;19916;-94
2020/12/24 03:43:54;;;;;;;;;;;8.10;99.90;;;;;;5078317;28;19912;-94
2020/12/24 03:46:44;;;;;;;;;;;8.10;99.90;;;;;;5074633;28;19916;-94
2020/12/24 03:49:20;;;;;;;;;;;8.10;99.90;;;;;;5071534;28;19966;-92
2020/12/24 03:52:05;;;;;;;;;;;8.10;99.90;;;;;;5057417;28;19915;-94
2020/12/24 03:54:31;;;;;;;;;;;8.10;99.90;;;;;;5058271;28;19954;-94
2020/12/24 03:57:13;;;;;;;;;;;8.10;99.90;;;;;;5058264;28;19908;-94
2020/12/24 03:59:42;;;;;;;;;;;8.10;99.90;;;;;;5058302;28;19913;-94
2020/12/24 04:02:38;;;;;;;;;;;8.10;99.90;;;;;;5057198;28;20291;-95
2020/12/24 04:05:12;;;;;;;;;;;8.10;99.90;;;;;;5057835;28;19915;-95
2020/12/24 04:10:52;;;;;;;;;;;8.10;99.90;;;;;;5094096;28;19908;-94
2020/12/24 04:13:20;;;;;;;;;;;8.00;99.90;;;;;;5094302;28;19919;-95
2020/12/24 04:15:58;;;;;;;;;;;8.10;99.90;;;;;;5089547;28;19954;-94
2020/12/24 04:18:38;;;;;;;;;;;8.10;99.90;;;;;;5124862;27;19912;-95
2020/12/24 04:21:24;;;;;;;;;;;8.00;99.90;;;;;;5115878;28;19998;-96
2020/12/24 04:24:11;;;;;;;;;;;8.00;99.90;;;;;;5116593;28;20376;-94
2020/12/24 04:26:43;;;;;;;;;;;8.10;99.90;;;;;;5115802;28;19908;-95
2020/12/24 04:29:16;;;;;;;;;;;8.10;99.90;;;;;;5109400;28;19908;-95
2020/12/24 04:31:50;;;;;;;;;;;8.00;99.90;;;;;;5115436;27;19964;-95
2020/12/24 04:34:29;;;;;;;;;;;8.00;99.90;;;;;;5117584;27;19914;-94
2020/12/24 04:37:19;;;;;;;;;;;8.00;99.90;;;;;;5117273;27;19924;-95
2020/12/24 04:40:05;;;;;;;;;;;8.00;99.90;;;;;;5121730;27;19923;-93
2020/12/24 04:42:41;;;;;;;;;;;8.00;99.90;;;;;;5115473;27;19949;-96
2020/12/24 04:45:12;;;;;;;;;;;8.10;99.90;;;;;;5112141;27;19908;-95
2020/12/24 04:47:50;;;;;;;;;;;8.10;99.90;;;;;;5114144;27;19911;-95
2020/12/24 04:50:24;;;;;;;;;;;8.00;99.90;;;;;;5116100;27;20356;-95
2020/12/24 04:53:02;;;;;;;;;;;8.10;99.90;;;;;;5138360;27;19958;-96
2020/12/24 04:55:41;;;;;;;;;;;8.10;99.90;;;;;;5120910;27;19907;-95
2020/12/24 04:58:29;;;;;;;;;;;7.90;99.90;;;;;;5141954;27;19973;-96
2020/12/24 05:01:03;;;;;;;;;;;7.50;99.90;;;;;;5128067;28;19911;-96
2020/12/24 05:03:37;;;;;;;;;;;7.10;99.90;;;;;;5122168;28;20055;-96
2020/12/24 05:06:25;;;;;;;;;;;6.90;99.90;;;;;;5100337;28;19912;-96
2020/12/24 05:09:24;;;;;;;;;;;6.60;99.90;;;;;;5101665;28;19983;-95
2020/12/24 05:12:20;;;;;;;;;;;6.30;99.90;;;;;;5079466;28;19912;-95
2020/12/24 05:15:01;;;;;;;;;;;6.10;99.90;;;;;;5103220;28;19908;-96
2020/12/24 05:17:35;;;;;;;;;;;5.90;99.90;;;;;;5082795;28;19957;-96
2020/12/24 05:20:10;;;;;;;;;;;5.70;99.90;;;;;;5081952;28;20007;-96
2020/12/24 05:22:47;;;;;;;;;;;5.60;99.90;;;;;;5080570;28;19951;-96
2020/12/24 05:25:19;;;;;;;;;;;5.50;99.90;;;;;;5078980;28;19947;-95
2020/12/24 05:28:01;;;;;;;;;;;5.30;99.90;;;;;;5082204;28;20323;-95
2020/12/24 05:30:35;;;;;;;;;;;5.20;99.90;;;;;;5070104;28;19912;-96
2020/12/24 05:33:36;;;;;;;;;;;5.10;99.90;;;;;;5100336;28;19916;-96
2020/12/24 05:36:23;;;;;;;;;;;5.00;99.90;;;;;;5082869;28;19927;-95
2020/12/24 05:38:52;;;;;;;;;;;5.00;99.90;;;;;;5094951;28;20386;-94
2020/12/24 05:41:28;;;;;;;;;;;4.90;99.90;;;;;;5101526;28;20348;-96
2020/12/24 05:44:07;;;;;;;;;;;4.90;99.90;;;;;;5086312;28;19950;-96
2020/12/24 05:47:02;;;;;;;;;;;4.80;99.90;;;;;;5101059;28;20349;-96
2020/12/24 05:49:44;;;;;;;;;;;4.70;99.90;;;;;;5104083;28;19960;-96
2020/12/24 05:52:17;;;;;;;;;;;4.60;99.90;;;;;;5100711;28;20036;-95
2020/12/24 05:54:47;;;;;;;;;;;4.60;99.90;;;;;;5101679;28;19962;-93
2020/12/24 05:57:17;;;;;;;;;;;4.50;99.90;;;;;;5093938;28;19914;-94
2020/12/24 05:59:44;;;;;;;;;;;4.40;99.90;;;;;;5098043;28;19909;-93
2020/12/24 06:02:22;;;;;;;;;;;4.40;99.90;;;;;;5116798;27;19915;-93
2020/12/24 06:04:53;;;;;;;;;;;4.40;99.90;;;;;;5121952;27;19966;-93
2020/12/24 06:07:37;;;;;;;;;;;4.30;99.90;;;;;;5124746;27;19960;-95
2020/12/24 06:10:08;;;;;;;;;;;4.30;99.90;;;;;;5124546;27;19907;-95
2020/12/24 06:12:49;;;;;;;;;;;4.20;99.90;;;;;;5135760;27;19907;-96
2020/12/24 06:15:38;;;;;;;;;;;4.30;99.90;;;;;;5154502;27;19953;-94
2020/12/24 06:18:13;;;;;;;;;;;4.20;99.90;;;;;;5139127;27;19908;-92
2020/12/24 06:20:44;;;;;;;;;;;4.20;99.90;;;;;;5109910;27;20046;-95
2020/12/24 06:23:15;;;;;;;;;;;4.20;99.90;;;;;;5123721;27;19916;-95
2020/12/24 06:25:54;;;;;;;;;;;4.20;99.90;;;;;;5123247;27;20010;-96
2020/12/24 06:28:33;;;;;;;;;;;4.20;99.90;;;;;;5122731;27;19911;-95
2020/12/24 06:31:05;;;;;;;;;;;4.20;99.90;;;;;;5121295;27;19957;-94
2020/12/24 06:33:31;;;;;;;;;;;4.20;99.90;;;;;;5115876;27;19964;-96
2020/12/24 06:36:00;;;;;;;;;;;4.20;99.90;;;;;;5116835;27;19907;-96
2020/12/24 06:38:47;;;;;;;;;;;4.20;99.90;;;;;;5115233;27;19918;-94
2020/12/24 06:41:27;;;;;;;;;;;4.20;99.90;;;;;;5120823;27;19919;-95
2020/12/24 06:43:56;;;;;;;;;;;4.20;99.90;;;;;;5114390;27;19916;-94
2020/12/24 06:46:28;;;;;;;;;;;4.20;99.90;;;;;;5120596;27;20352;-95
2020/12/24 06:49:23;;;;;;;;;;;4.20;99.90;;;;;;5120601;27;20379;-94
2020/12/24 06:52:11;;;;;;;;;;;4.20;99.90;;;;;;5138058;27;19907;-94
2020/12/24 06:54:42;;;;;;;;;;;4.30;99.90;;;;;;5140882;27;19908;-92
2020/12/24 06:57:23;;;;;;;;;;;4.30;99.90;;;;;;5139771;27;19908;-94
2020/12/24 07:00:09;;;;;;;;;;;4.30;99.90;;;;;;5121082;27;19907;-93
2020/12/24 07:02:43;;;;;;;;;;;4.30;99.90;;;;;;5120648;27;20352;-93
2020/12/24 07:05:28;;;;;;;;;;;4.40;99.90;;;;;;5117225;27;19914;-94
2020/12/24 07:07:57;;;;;;;;;;;4.40;99.90;;;;;;5120563;27;19915;-94
2020/12/24 07:10:44;;;;;;;;;;;4.40;99.90;;;;;;5120151;27;19914;-95
2020/12/24 07:13:28;;;;;;;;;;;4.40;99.90;;;;;;5120102;27;19911;-94
2020/12/24 07:16:02;;;;;;;;;;;4.40;99.90;;;;;;5130268;27;20001;-93
2020/12/24 07:18:34;;;;;;;;;;;4.40;99.90;;;;;;5140145;27;19907;-94
2020/12/24 07:21:07;;;;;;;;;;;4.40;99.90;;;;;;5140442;27;19919;-93
2020/12/24 07:23:37;;;;;;;;;;;4.40;99.90;;;;;;5141341;27;19944;-95
2020/12/24 07:26:07;;;;;;;;;;;4.40;99.90;;;;;;5140864;27;19918;-94
2020/12/24 07:28:40;;;;;;;;;;;4.40;99.90;;;;;;5140853;27;19949;-94
2020/12/24 07:31:09;;;;;;;;;;;4.40;99.90;;;;;;5140763;27;19917;-94
2020/12/24 07:33:36;;;;;;;;;;;4.50;99.90;;;;;;5134555;27;19908;-94
2020/12/24 07:36:09;;;;;;;;;;;4.50;99.90;;;;;;5148303;27;19919;-94
2020/12/24 07:38:38;;;;;;;;;;;4.50;99.90;;;;;;5159667;27;19952;-95
2020/12/24 07:41:17;;;;;;;;;;;4.50;99.90;;;;;;5159490;27;20386;-94
2020/12/24 07:43:48;;;;;;;;;;;4.50;99.90;;;;;;5142232;27;19918;-94
2020/12/24 07:46:20;;;;;;;;;;;4.50;99.90;;;;;;5136465;27;19907;-95
2020/12/24 07:48:52;;;;;;;;;;;4.60;99.90;;;;;;5136515;27;19911;-95
2020/12/24 07:51:20;;;;;;;;;;;4.60;99.90;;;;;;5129858;27;20439;-93
2020/12/24 07:53:49;;;;;;;;;;;4.60;99.90;;;;;;5124868;27;19908;-94
2020/12/24 07:56:20;;;;;;;;;;;4.60;99.90;;;;;;5131511;27;19914;-94
2020/12/24 07:59:00;;;;;;;;;;;4.60;99.90;;;;;;5122838;27;20347;-94
2020/12/24 08:01:26;;;;;;;;;;;4.60;99.90;;;;;;5128795;27;20340;-94
2020/12/24 08:04:04;;;;;;;;;;;4.60;99.90;;;;;;5124268;27;19922;-95
2020/12/24 08:06:31;;;;;;;;;;;4.60;99.90;;;;;;5121859;27;20404;-94
2020/12/24 08:09:20;;;;;;;;;;;4.60;99.90;;;;;;5118768;27;19959;-93
2020/12/24 08:12:04;;;;;;;;;;;4.60;99.90;;;;;;5134374;27;19975;-95
2020/12/24 08:14:34;;;;;;;;;;;4.70;99.90;;;;;;5118798;27;19912;-94
2020/12/24 08:17:14;;;;;;;;;;;4.60;99.90;;;;;;5122518;27;19970;-93
2020/12/24 08:20:01;;;;;;;;;;;4.60;99.90;;;;;;5140054;27;20296;-92
2020/12/24 08:22:50;;;;;;;;;;;4.60;99.90;;;;;;5139456;27;19915;-91
2020/12/24 08:25:19;;;;;;;;;;;4.60;99.90;;;;;;5141000;27;19907;-91
2020/12/24 08:27:55;;;;;;;;;;;4.70;99.90;;;;;;5139467;27;19908;-94
2020/12/24 08:30:37;;;;;;;;;;;4.70;99.90;;;;;;5140916;27;19992;-90
2020/12/24 08:33:04;;;;;;;;;;;4.70;99.90;;;;;;5138882;27;19911;-94
2020/12/24 08:35:33;;;;;;;;;;;4.80;99.90;;;;;;5157717;27;19918;-90
2020/12/24 08:38:14;;;;;;;;;;;4.80;99.90;;;;;;5132153;27;20058;-91
2020/12/24 08:40:41;;;;;;;;;;;4.80;99.90;;;;;;5135921;27;19915;-92
2020/12/24 08:43:15;;;;;;;;;;;4.80;99.90;;;;;;5138890;27;19911;-91
2020/12/24 08:45:55;;;;;;;;;;;4.90;99.90;;;;;;5157319;27;19959;-92
2020/12/24 08:48:57;;;;;;;;;;;4.90;99.90;;;;;;5138749;27;20325;-91
2020/12/24 08:51:25;;;;;;;;;;;5.00;99.90;;;;;;5154773;27;19990;-93
2020/12/24 08:54:16;;;;;;;;;;;5.00;99.90;;;;;;5133531;27;19990;-92
2020/12/24 08:56:45;;;;;;;;;;;5.10;99.90;;;;;;5138463;27;19907;-93
2020/12/24 08:59:34;;;;;;;;;;;5.10;99.90;;;;;;5139143;27;19911;-93
2020/12/24 09:02:03;;;;;;;;;;;5.10;99.90;;;;;;5139221;27;19918;-93
2020/12/24 09:04:31;;;;;;;;;;;5.10;99.90;;;;;;5132398;27;19914;-93
2020/12/24 09:07:38;;;;;;;;;;;5.10;99.90;;;;;;5139222;27;19913;-93
2020/12/24 09:10:13;;;;;;;;;;;5.00;99.90;;;;;;5136811;27;19947;-93
2020/12/24 09:22:46;;;;;;;;;;;5.00;99.90;;;;;;5156672;27;19919;-92
2020/12/24 09:25:26;;;;;;;;;;;5.00;99.90;;;;;;5139011;27;19911;-93
2020/12/24 09:28:06;;;;;;;;;;;5.10;99.90;;;;;;5138814;27;19923;-92
2020/12/24 09:30:49;;;;;;;;;;;5.00;99.90;;;;;;5154553;27;19914;-93
2020/12/24 09:33:56;;;;;;;;;;;5.10;99.90;;;;;;5152987;27;19948;-93
2020/12/24 09:36:37;;;;;;;;;;;5.10;99.90;;;;;;5135188;28;19919;-93
2020/12/24 09:45:23;;;;;;;;;;;5.10;99.90;;;;;;5134673;28;19911;-92
2020/12/24 09:48:08;;;;;;;;;;;5.20;99.90;;;;;;5129545;28;19914;-92
2020/12/24 09:56:46;;;;;;;;;;;5.20;99.90;;;;;;5135574;28;19952;-92
2020/12/24 09:59:15;;;;;;;;;;;5.30;99.90;;;;;;5134947;28;19912;-91
2020/12/24 10:17:21;;;;;;;;;;;5.40;99.90;;;;;;5138705;27;19907;-92
2020/12/24 10:19:58;;;;;;;;;;;5.40;99.90;;;;;;5059354;28;20082;-91
2020/12/24 10:23:01;;;;;;;;;;;5.50;99.90;;;;;;5075741;28;19912;-91
2020/12/24 10:25:33;;;;;;;;;;;5.50;99.90;;;;;;5075417;28;19908;-91
2020/12/24 10:28:05;;;;;;;;;;;5.50;99.90;;;;;;5075970;28;19913;-93
2020/12/24 10:30:35;;;;;;;;;;;5.50;99.90;;;;;;5073453;28;19913;-90
2020/12/24 10:33:13;;;;;;;;;;;5.50;99.90;;;;;;5076342;28;20150;-91
2020/12/24 10:35:45;;;;;;;;;;;5.60;99.90;;;;;;5072119;28;19916;-92
2020/12/24 10:38:27;;;;;;;;;;;5.50;99.90;;;;;;5076135;28;20054;-94
2020/12/24 10:41:07;;;;;;;;;;;5.60;99.90;;;;;;5076775;28;19912;-93
2020/12/24 10:43:53;;;;;;;;;;;5.60;99.90;;;;;;5069827;28;19959;-92
2020/12/24 10:46:22;;;;;;;;;;;5.60;99.90;;;;;;5119363;28;20327;-93
2020/12/24 10:49:04;;;;;;;;;;;5.60;99.90;;;;;;5117480;28;19915;-92
2020/12/24 10:51:38;;;;;;;;;;;5.70;99.90;;;;;;5117103;28;19908;-93
2020/12/24 10:54:25;;;;;;;;;;;5.70;99.90;;;;;;5117552;28;19930;-93
2020/12/24 10:57:12;;;;;;;;;;;5.70;99.90;;;;;;5118192;28;19908;-92
2020/12/24 10:59:46;;;;;;;;;;;5.80;99.90;;;;;;5117239;28;20280;-93
2020/12/24 11:02:14;;;;;;;;;;;5.80;99.90;;;;;;5120987;28;19916;-92
2020/12/24 11:05:04;;;;;;;;;;;5.90;99.90;;;;;;5122314;28;19961;-94
2020/12/24 11:07:42;;;;;;;;;;;5.90;99.90;;;;;;5118728;28;19907;-92
2020/12/24 11:10:15;;;;;;;;;;;5.90;99.90;;;;;;5119289;28;19908;-92
2020/12/24 11:12:45;;;;;;;;;;;5.90;99.90;;;;;;5096748;28;19908;-91
2020/12/24 11:15:11;;;;;;;;;;;6.00;99.90;;;;;;5078433;28;19908;-94
2020/12/24 11:17:38;;;;;;;;;;;6.00;99.90;;;;;;5096088;28;19908;-93
2020/12/24 11:20:17;;;;;;;;;;;6.00;99.90;;;;;;5078909;28;19908;-93
2020/12/24 11:22:51;;;;;;;;;;;6.10;99.90;;;;;;5093298;28;19918;-91
2020/12/24 11:25:37;;;;;;;;;;;6.10;99.90;;;;;;5078012;28;20311;-93
2020/12/24 11:28:18;;;;;;;;;;;6.20;99.90;;;;;;5078291;28;19915;-93
2020/12/24 11:30:54;;;;;;;;;;;6.10;99.90;;;;;;5075607;28;19915;-92
2020/12/24 11:33:30;;;;;;;;;;;6.20;99.90;;;;;;5094533;28;19924;-93
2020/12/24 11:35:58;;;;;;;;;;;6.20;99.90;;;;;;5080736;28;19916;-95
2020/12/24 11:38:36;;;;;;;;;;;6.20;99.90;;;;;;5033551;28;19928;-93
2020/12/24 11:41:12;;;;;;;;;;;6.20;99.90;;;;;;5035663;28;19925;-93
2020/12/24 11:43:50;;;;;;;;;;;6.20;99.90;;;;;;5054189;28;20021;-94
2020/12/24 11:46:18;;;;;;;;;;;6.20;99.90;;;;;;5058664;28;19931;-93
2020/12/24 11:48:46;;;;;;;;;;;6.30;99.90;;;;;;5058632;28;19915;-93
2020/12/24 11:51:27;;;;;;;;;;;6.30;99.90;;;;;;5058691;28;20317;-93
2020/12/24 11:53:55;;;;;;;;;;;6.30;99.90;;;;;;5058911;28;19915;-93
2020/12/24 11:56:25;;;;;;;;;;;6.40;99.90;;;;;;5059172;28;20339;-93
2020/12/24 11:58:55;;;;;;;;;;;6.40;99.90;;;;;;5058422;28;19980;-93
2020/12/24 12:01:29;;;;;;;;;;;6.40;99.90;;;;;;5057669;28;19935;-92
2020/12/24 12:04:01;;;;;;;;;;;6.40;99.90;;;;;;5057436;28;20281;-92
2020/12/24 12:06:32;;;;;;;;;;;6.50;99.90;;;;;;5057585;28;19915;-92
2020/12/24 12:09:18;;;;;;;;;;;6.50;99.90;;;;;;5047456;28;19912;-92
2020/12/24 12:11:47;;;;;;;;;;;6.50;99.90;;;;;;5074135;28;19950;-91
2020/12/24 12:14:27;;;;;;;;;;;6.60;99.90;;;;;;5072070;28;19931;-92
2020/12/24 12:16:55;;;;;;;;;;;6.60;99.90;;;;;;5070628;28;19999;-92
2020/12/24 12:19:33;;;;;;;;;;;6.70;99.90;;;;;;5058009;28;20405;-93
2020/12/24 12:22:05;;;;;;;;;;;6.70;99.90;;;;;;5075169;28;20015;-93
2020/12/24 12:24:32;;;;;;;;;;;6.80;99.90;;;;;;5075143;28;20008;-94
2020/12/24 12:27:03;;;;;;;;;;;6.90;99.90;;;;;;5074663;28;20007;-93
2020/12/24 12:29:36;;;;;;;;;;;6.90;99.90;;;;;;5071012;28;19916;-94
2020/12/24 12:32:13;;;;;;;;;;;6.90;99.90;;;;;;5073972;28;19908;-94
2020/12/24 12:35:05;;;;;;;;;;;6.90;99.90;;;;;;5098195;28;19915;-92
2020/12/24 12:37:35;;;;;;;;;;;6.80;99.90;;;;;;5104409;27;19919;-94
2020/12/24 12:40:04;;;;;;;;;;;6.80;99.90;;;;;;5137179;27;20002;-93
2020/12/24 12:42:39;;;;;;;;;;;6.70;99.90;;;;;;5037827;28;19923;-93
2020/12/24 12:48:09;;;;;;;;;;;6.70;99.90;;;;;;5055334;28;19916;-93
2020/12/24 12:50:45;;;;;;;;;;;6.80;99.90;;;;;;5034819;28;19936;-91
2020/12/24 12:53:16;;;;;;;;;;;6.80;99.90;;;;;;5001727;28;20016;-93
2020/12/24 12:56:22;;;;;;;;;;;6.70;99.90;;;;;;5034097;28;19914;-95
2020/12/24 12:58:57;;;;;;;;;;;6.70;99.90;;;;;;5032034;28;19976;-92
2020/12/24 13:01:50;;;;;;;;;;;6.70;99.90;;;;;;5014080;28;20026;-93
2020/12/24 13:04:25;;;;;;;;;;;6.70;99.90;;;;;;5014318;28;20270;-92
2020/12/24 13:06:55;;;;;;;;;;;6.70;99.90;;;;;;5004190;28;19924;-93
2020/12/24 13:09:26;;;;;;;;;;;6.70;99.90;;;;;;4955897;29;19930;-93
2020/12/24 13:11:56;;;;;;;;;;;6.60;99.90;;;;;;4955541;29;19910;-94
2020/12/24 13:14:24;;;;;;;;;;;6.60;99.90;;;;;;4972683;28;19948;-93
2020/12/24 13:16:56;;;;;;;;;;;6.60;99.90;;;;;;4988057;28;20013;-94
2020/12/24 13:19:35;;;;;;;;;;;6.60;99.90;;;;;;4977201;28;20450;-94
2020/12/24 13:22:06;;;;;;;;;;;6.50;99.90;;;;;;4974565;28;19925;-93
2020/12/24 13:24:45;;;;;;;;;;;;;;;;;;;;;
2020/12/24 13:27:38;;;;;;;;;;;6.50;99.90;;;;;;4976203;28;19922;-94
2020/12/24 13:30:06;;;;;;;;;;;6.50;99.90;;;;;;4983860;28;19918;-94
2020/12/24 13:32:35;;;;;;;;;;;6.40;99.90;;;;;;4962869;28;19914;-93
2020/12/24 13:35:10;;;;;;;;;;;6.40;99.90;;;;;;4956167;28;19940;-93
2020/12/24 13:37:40;;;;;;;;;;;6.40;99.90;;;;;;4952712;28;20295;-93
2020/12/24 13:40:09;;;;;;;;;;;6.40;99.90;;;;;;4965260;28;19914;-93
2020/12/24 13:42:48;;;;;;;;;;;6.40;99.90;;;;;;5029221;28;19919;-93
2020/12/24 13:45:19;;;;;;;;;;;6.40;99.90;;;;;;5016722;28;20000;-92
2020/12/24 13:48:13;;;;;;;;;;;6.40;99.90;;;;;;5092477;28;20372;-93
2020/12/24 13:51:10;;;;;;;;;;;6.40;99.90;;;;;;5097127;28;19995;-93
2020/12/24 13:53:41;;;;;;;;;;;6.30;99.90;;;;;;5081503;28;19908;-93
2020/12/24 13:56:14;;;;;;;;;;;6.30;99.90;;;;;;5080438;28;19943;-94
2020/12/24 13:58:49;;;;;;;;;;;6.30;99.90;;;;;;5080831;28;19931;-94
2020/12/24 14:07:30;;;;;;;;;;;6.20;99.90;;;;;;5117663;28;19907;-92
2020/12/24 14:10:34;;;;;;;;;;;6.20;99.90;;;;;;5117351;28;19915;-93
2020/12/24 14:13:19;;;;;;;;;;;6.20;99.90;;;;;;5100200;28;19908;-93
2020/12/24 14:34:39;;;;;;;;;;;6.30;99.90;;;;;;5137890;27;19971;-91
2020/12/24 14:37:07;;;;;;;;;;;6.20;99.90;;;;;;5039395;28;19909;-92
2020/12/24 14:46:21;;;;;;;;;;;6.00;99.90;;;;;;5075349;28;19912;-92
2020/12/24 14:48:58;;;;;;;;;;;5.80;99.90;;;;;;5059171;28;20357;-91
2020/12/24 14:57:41;;;;;;;;;;;5.70;99.90;;;;;;5075343;28;19908;-91
2020/12/24 15:00:20;;;;;;;;;;;;;;;;;;;;;
2020/12/24 15:03:00;;;;;;;;;;;5.50;99.90;;;;;;5034501;28;19922;-90
2020/12/24 15:05:29;;;;;;;;;;;5.40;99.90;;;;;;5095987;28;19909;-92
2020/12/24 15:11:44;;;;;;;;;;;5.30;99.90;;;;;;5096613;28;19908;-90
2020/12/24 15:14:17;;;;;;;;;;;5.20;99.90;;;;;;5078503;28;19909;-90
2020/12/24 15:23:09;;;;;;;;;;;5.00;99.90;;;;;;5095410;28;19916;-90
2020/12/24 15:25:57;;;;;;;;;;;5.00;99.90;;;;;;5095576;28;20002;-93
2020/12/24 15:38:06;;;;;;;;;;;4.80;99.90;;;;;;5144163;27;20291;-91
2020/12/24 15:40:32;;;;;;;;;;;4.70;99.90;;;;;;5143629;27;19918;-91
2020/12/24 15:43:25;;;;;;;;;;;4.70;99.90;;;;;;5145202;27;19915;-91
2020/12/24 15:46:00;;;;;;;;;;;4.60;99.90;;;;;;5149176;27;19918;-90
2020/12/24 16:10:34;;;;;;;;;;;4.30;99.90;;;;;;5157240;27;19907;-91
2020/12/24 16:13:03;;;;;;;;;;;4.20;99.90;;;;;;5139292;27;19918;-90
2020/12/24 16:15:32;;;;;;;;;;;4.20;99.90;;;;;;5140110;27;19907;-91
2020/12/24 16:18:26;;;;;;;;;;;4.20;99.90;;;;;;5097083;28;19919;-90
2020/12/24 16:20:52;;;;;;;;;;;4.20;99.90;;;;;;5077191;28;19908;-91
2020/12/24 16:56:26;;;;;;;;;;;3.90;99.90;;;;;;5042748;28;20058;-92
2020/12/24 17:08:17;;;;;;;;;;;3.80;99.90;;;;;;5134799;27;20368;-92
2020/12/24 17:32:37;;;;;;;;;;;3.60;99.90;;;;;;5119028;28;19934;-93
2020/12/24 17:35:09;;;;;;;;;;;3.60;99.90;;;;;;5101919;28;19908;-91
2020/12/24 17:53:20;;;;;;;;;;;3.50;99.90;;;;;;5057827;28;20040;-90
2020/12/24 17:55:55;;;;;;;;;;;3.50;99.90;;;;;;5056021;28;19930;-90
2020/12/24 17:58:23;;;;;;;;;;;3.60;99.90;;;;;;5058945;28;19913;-89
2020/12/24 18:01:09;;;;;;;;;;;3.60;99.90;;;;;;5074666;28;20368;-90
2020/12/24 18:03:56;;;;;;;;;;;3.70;99.90;;;;;;5138624;27;19915;-90
2020/12/24 18:06:28;;;;;;;;;;;3.80;99.90;;;;;;5116674;27;19914;-89
2020/12/24 18:09:13;;;;;;;;;;;3.90;99.90;;;;;;5117231;27;20267;-90
2020/12/24 18:11:44;;;;;;;;;;;3.90;99.90;;;;;;5138504;27;19915;-89
2020/12/24 18:14:34;;;;;;;;;;;3.90;99.90;;;;;;5137619;27;19907;-91
2020/12/24 18:17:08;;;;;;;;;;;3.90;99.90;;;;;;5117452;27;19908;-88
2020/12/24 18:19:41;;;;;;;;;;;3.90;99.90;;;;;;5103314;27;19912;-90
2020/12/24 18:22:27;;;;;;;;;;;3.80;99.90;;;;;;5120382;27;19918;-89
2020/12/24 18:25:04;;;;;;;;;;;3.80;99.90;;;;;;5137468;27;19912;-89
2020/12/24 18:27:40;;;;;;;;;;;3.80;99.90;;;;;;5139121;27;19908;-88
2020/12/24 18:30:10;;;;;;;;;;;3.80;99.90;;;;;;5116669;27;19947;-88
2020/12/24 18:32:49;;;;;;;;;;;3.70;99.90;;;;;;5120005;27;19908;-90
2020/12/24 18:35:18;;;;;;;;;;;3.70;99.90;;;;;;5138338;27;20016;-89
2020/12/24 18:37:57;;;;;;;;;;;3.70;99.90;;;;;;5139087;27;19908;-89
2020/12/24 18:40:28;;;;;;;;;;;3.70;99.90;;;;;;5112924;27;19908;-89
2020/12/24 18:43:32;;;;;;;;;;;3.70;99.90;;;;;;5136920;27;19915;-89
2020/12/24 18:46:03;;;;;;;;;;;3.60;99.90;;;;;;5120432;27;19955;-90
2020/12/24 18:48:39;;;;;;;;;;;3.50;99.90;;;;;;5113258;27;19961;-89
2020/12/24 18:51:25;;;;;;;;;;;3.50;99.90;;;;;;5120952;27;19972;-89
2020/12/24 18:53:56;;;;;;;;;;;3.50;99.90;;;;;;5095181;28;20285;-89
2020/12/24 18:56:28;;;;;;;;;;;3.60;99.90;;;;;;5074836;28;19915;-89
2020/12/24 18:59:00;;;;;;;;;;;3.70;99.90;;;;;;5058700;28;19947;-89
2020/12/24 19:01:44;;;;;;;;;;;3.80;99.90;;;;;;5073419;28;19912;-90
2020/12/24 19:04:10;;;;;;;;;;;3.90;99.90;;;;;;5055328;28;20324;-89
2020/12/24 19:06:47;;;;;;;;;;;4.00;99.90;;;;;;5054995;28;19913;-89
2020/12/24 19:09:21;;;;;;;;;;;4.00;99.90;;;;;;5058320;28;19908;-90
2020/12/24 19:11:55;;;;;;;;;;;4.10;99.90;;;;;;5057810;28;19909;-89
2020/12/24 19:14:25;;;;;;;;;;;4.10;99.90;;;;;;5041802;28;19974;-89
2020/12/24 19:16:53;;;;;;;;;;;4.10;99.90;;;;;;5054420;28;20277;-89
2020/12/24 19:20:01;;;;;;;;;;;4.10;99.90;;;;;;5093027;28;19915;-89
2020/12/24 19:22:39;;;;;;;;;;;4.20;99.90;;;;;;5134638;27;20405;-90
2020/12/24 19:25:26;;;;;;;;;;;4.20;99.90;;;;;;5084548;27;19916;-89
2020/12/24 19:27:53;;;;;;;;;;;4.30;99.90;;;;;;5119900;27;19907;-87
2020/12/24 19:30:21;;;;;;;;;;;4.30;99.90;;;;;;5119292;27;19907;-89
2020/12/24 19:32:59;;;;;;;;;;;4.10;99.90;;;;;;5132202;27;19911;-89
2020/12/24 19:35:35;;;;;;;;;;;4.10;99.90;;;;;;5116457;27;20272;-88
2020/12/24 19:38:01;;;;;;;;;;;4.00;99.90;;;;;;5119360;27;19912;-89
2020/12/24 19:40:33;;;;;;;;;;;4.00;99.90;;;;;;5113340;27;20229;-89
2020/12/24 19:43:23;;;;;;;;;;;4.00;99.90;;;;;;5135670;27;19915;-88